createdAt,value
2019-01-14T00:00:28.727Z,987.47
2019-01-14T00:01:27.137Z,987.45
2019-01-14T00:02:24.704Z,987.41
2019-01-14T00:03:21.984Z,987.5
2019-01-14T00:04:18.193Z,987.39
2019-01-14T00:05:16.641Z,987.51
2019-01-14T00:06:15.912Z,987.5
2019-01-14T00:07:12.347Z,987.39
2019-01-14T00:08:20.612Z,987.59
2019-01-14T00:09:23.219Z,987.53
2019-01-14T00:09:23.331Z,987.53
2019-01-14T00:10:12.914Z,987.6
2019-01-14T00:11:11.650Z,987.65
2019-01-14T00:12:13.032Z,987.62
2019-01-14T00:13:10.303Z,987.68
2019-01-14T00:14:06.864Z,987.65
2019-01-14T00:15:08.907Z,987.71
2019-01-14T00:16:05.216Z,987.72
2019-01-14T00:17:01.671Z,987.78
2019-01-14T00:17:59.204Z,987.69
2019-01-14T00:18:57.286Z,987.71
2019-01-14T00:19:55.000Z,987.74
2019-01-14T00:20:58.298Z,987.65
2019-01-14T00:22:00.087Z,987.84
2019-01-14T00:22:56.925Z,987.81
2019-01-14T00:23:55.095Z,987.77
2019-01-14T00:24:55.599Z,987.74
2019-01-14T00:26:01.521Z,987.84
2019-01-14T00:27:00.878Z,987.84
2019-01-14T00:27:57.234Z,987.95
2019-01-14T00:28:57.523Z,987.76
2019-01-14T00:29:54.088Z,987.81
2019-01-14T00:30:53.799Z,987.94
2019-01-14T00:31:51.432Z,987.86
2019-01-14T00:32:51.470Z,987.92
2019-01-14T00:33:47.696Z,987.94
2019-01-14T00:34:45.193Z,987.92
2019-01-14T00:35:41.744Z,987.94
2019-01-14T00:36:39.127Z,988
2019-01-14T00:37:35.462Z,987.92
2019-01-14T00:38:32.050Z,988
2019-01-14T00:39:30.578Z,987.96
2019-01-14T00:40:29.691Z,988
2019-01-14T00:41:25.801Z,987.93
2019-01-14T00:42:22.138Z,987.96
2019-01-14T00:43:18.678Z,988.1
2019-01-14T00:44:23.554Z,988.06
2019-01-14T00:45:20.061Z,988.05
2019-01-14T00:46:18.202Z,987.94
2019-01-14T00:47:15.844Z,987.94
2019-01-14T00:48:25.598Z,988.05
2019-01-14T00:49:23.775Z,988.05
2019-01-14T00:50:21.241Z,988.05
2019-01-14T00:51:19.205Z,988.06
2019-01-14T00:52:18.885Z,988.06
2019-01-14T00:53:22.262Z,988.11
2019-01-14T00:54:24.813Z,988.05
2019-01-14T00:55:21.053Z,988.21
2019-01-14T00:56:17.506Z,988.18
2019-01-14T00:57:24.171Z,988.14
2019-01-14T00:58:20.677Z,988.05
2019-01-14T00:59:19.271Z,988.15
2019-01-14T01:00:19.806Z,988.17
2019-01-14T01:01:15.851Z,988.24
2019-01-14T01:02:17.869Z,988.31
2019-01-14T01:03:22.566Z,988.12
2019-01-14T01:04:22.115Z,988.13
2019-01-14T01:05:22.885Z,988.16
2019-01-14T01:06:24.761Z,988.16
2019-01-14T01:07:21.655Z,988.34
2019-01-14T01:08:20.491Z,988.26
2019-01-14T01:09:20.636Z,988.24
2019-01-14T01:10:19.840Z,988.29
2019-01-14T01:11:19.874Z,988.26
2019-01-14T01:12:17.612Z,988.26
2019-01-14T01:13:13.574Z,988.31
2019-01-14T01:14:17.258Z,988.35
2019-01-14T01:15:14.248Z,988.29
2019-01-14T01:16:12.107Z,988.41
2019-01-14T01:17:11.890Z,988.43
2019-01-14T01:18:08.669Z,988.41
2019-01-14T01:19:06.335Z,988.34
2019-01-14T01:20:05.104Z,988.38
2019-01-14T01:21:13.757Z,988.44
2019-01-14T01:22:10.609Z,988.44
2019-01-14T01:23:11.974Z,988.31
2019-01-14T01:24:09.116Z,988.34
2019-01-14T01:25:07.386Z,988.4
2019-01-14T01:26:05.673Z,988.23
2019-01-14T01:27:01.707Z,988.37
2019-01-14T01:28:11.000Z,988.33
2019-01-14T01:29:09.723Z,988.4
2019-01-14T01:30:09.775Z,988.48
2019-01-14T01:31:05.887Z,988.46
2019-01-14T01:32:05.220Z,988.56
2019-01-14T01:33:02.030Z,988.58
2019-01-14T01:33:59.653Z,988.48
2019-01-14T01:35:03.898Z,988.52
2019-01-14T01:35:59.677Z,988.52
2019-01-14T01:36:58.967Z,988.61
2019-01-14T01:37:55.064Z,988.59
2019-01-14T01:38:52.749Z,988.61
2019-01-14T01:39:49.027Z,988.55
2019-01-14T01:40:45.848Z,988.6
2019-01-14T01:41:51.966Z,988.61
2019-01-14T01:42:49.555Z,988.76
2019-01-14T01:43:55.198Z,988.71
2019-01-14T01:44:51.871Z,988.79
2019-01-14T01:45:47.823Z,988.7
2019-01-14T01:46:47.568Z,988.86
2019-01-14T01:47:44.468Z,988.76
2019-01-14T01:48:46.791Z,988.86
2019-01-14T01:49:50.848Z,988.83
2019-01-14T01:50:56.777Z,988.83
2019-01-14T01:51:52.819Z,989.01
2019-01-14T01:52:48.836Z,988.94
2019-01-14T01:53:46.512Z,989.11
2019-01-14T01:54:51.130Z,988.98
2019-01-14T01:55:50.819Z,989.11
2019-01-14T01:56:50.101Z,988.97
2019-01-14T01:57:46.567Z,989.07
2019-01-14T01:58:48.704Z,989.07
2019-01-14T01:59:58.085Z,989.13
2019-01-14T02:00:58.147Z,989.13
2019-01-14T02:01:57.383Z,989.12
2019-01-14T02:02:59.253Z,989.23
2019-01-14T02:04:00.407Z,989.28
2019-01-14T02:04:56.483Z,989.22
2019-01-14T02:05:54.007Z,989.26
2019-01-14T02:06:53.849Z,989.26
2019-01-14T02:07:49.516Z,989.26
2019-01-14T02:08:45.873Z,989.35
2019-01-14T02:09:44.431Z,989.32
2019-01-14T02:10:40.334Z,989.31
2019-01-14T02:11:36.573Z,989.37
2019-01-14T02:12:36.760Z,989.37
2019-01-14T02:13:37.354Z,989.37
2019-01-14T02:14:40.780Z,989.37
2019-01-14T02:15:37.047Z,989.4
2019-01-14T02:16:35.217Z,989.54
2019-01-14T02:17:33.653Z,989.47
2019-01-14T02:18:38.610Z,989.53
2019-01-14T02:19:35.778Z,989.52
2019-01-14T02:20:34.578Z,989.44
2019-01-14T02:21:39.995Z,989.53
2019-01-14T02:22:37.302Z,989.59
2019-01-14T02:23:34.108Z,989.58
2019-01-14T02:24:30.494Z,989.55
2019-01-14T02:25:30.765Z,989.52
2019-01-14T02:26:28.045Z,989.4
2019-01-14T02:27:23.867Z,989.5
2019-01-14T02:28:24.708Z,989.53
2019-01-14T02:29:25.701Z,989.56
2019-01-14T02:30:22.239Z,989.49
2019-01-14T02:31:20.075Z,989.44
2019-01-14T02:32:17.043Z,989.42
2019-01-14T02:33:15.457Z,989.55
2019-01-14T02:34:11.170Z,989.5
2019-01-14T02:35:11.845Z,989.5
2019-01-14T02:36:08.848Z,989.45
2019-01-14T02:37:10.684Z,989.52
2019-01-14T02:38:09.372Z,989.59
2019-01-14T02:39:06.491Z,989.58
2019-01-14T02:40:12.127Z,989.69
2019-01-14T02:41:11.675Z,989.68
2019-01-14T02:42:07.346Z,989.73
2019-01-14T02:43:04.145Z,989.7
2019-01-14T02:43:59.811Z,989.76
2019-01-14T02:44:55.406Z,989.8
2019-01-14T02:45:53.916Z,989.73
2019-01-14T02:46:49.599Z,989.79
2019-01-14T02:47:47.267Z,989.8
2019-01-14T02:48:50.568Z,989.88
2019-01-14T02:49:50.738Z,989.85
2019-01-14T02:50:52.042Z,989.89
2019-01-14T02:51:50.304Z,989.85
2019-01-14T02:52:51.291Z,989.91
2019-01-14T02:53:47.061Z,989.89
2019-01-14T02:54:51.252Z,989.91
2019-01-14T02:55:50.921Z,989.84
2019-01-14T02:56:47.197Z,989.76
2019-01-14T02:57:44.222Z,989.84
2019-01-14T02:58:39.926Z,989.81
2019-01-14T02:59:36.301Z,989.89
2019-01-14T03:00:33.045Z,989.91
2019-01-14T03:01:35.976Z,989.92
2019-01-14T03:02:37.681Z,989.85
2019-01-14T03:03:36.552Z,989.9
2019-01-14T03:04:37.271Z,989.88
2019-01-14T03:05:39.312Z,989.91
2019-01-14T03:06:36.474Z,989.91
2019-01-14T03:07:37.766Z,989.91
2019-01-14T03:08:33.557Z,989.94
2019-01-14T03:09:29.639Z,989.95
2019-01-14T03:10:29.754Z,989.93
2019-01-14T03:11:27.752Z,989.9
2019-01-14T03:12:29.416Z,989.91
2019-01-14T03:13:26.424Z,989.96
2019-01-14T03:14:28.775Z,989.88
2019-01-14T03:15:26.813Z,989.93
2019-01-14T03:16:22.963Z,990.03
2019-01-14T03:17:19.053Z,990.06
2019-01-14T03:18:15.023Z,990
2019-01-14T03:19:11.618Z,990.04
2019-01-14T03:20:15.423Z,990.06
2019-01-14T03:21:11.895Z,990.03
2019-01-14T03:22:07.457Z,990.04
2019-01-14T03:23:10.277Z,990.04
2019-01-14T03:24:14.195Z,990.04
2019-01-14T03:25:12.192Z,990.07
2019-01-14T03:26:13.723Z,990.02
2019-01-14T03:27:15.681Z,989.97
2019-01-14T03:28:12.283Z,989.94
2019-01-14T03:29:12.916Z,989.97
2019-01-14T03:30:08.905Z,989.94
2019-01-14T03:31:08.820Z,989.99
2019-01-14T03:32:06.413Z,990.07
2019-01-14T03:33:02.487Z,990
2019-01-14T03:33:58.782Z,990.02
2019-01-14T03:34:55.447Z,990.09
2019-01-14T03:35:57.899Z,990.1
2019-01-14T03:36:54.320Z,990.16
2019-01-14T03:37:50.965Z,990.08
2019-01-14T03:38:54.183Z,990.09
2019-01-14T03:39:50.691Z,990.21
2019-01-14T03:40:47.063Z,990.22
2019-01-14T03:41:45.988Z,990.18
2019-01-14T03:42:43.548Z,990.16
2019-01-14T03:43:42.405Z,990.25
2019-01-14T03:44:44.190Z,990.22
2019-01-14T03:45:43.244Z,990.28
2019-01-14T03:46:41.222Z,990.19
2019-01-14T03:47:38.710Z,990.27
2019-01-14T03:48:37.882Z,990.3
2019-01-14T03:49:36.087Z,990.21
2019-01-14T03:50:35.422Z,990.25
2019-01-14T03:51:31.609Z,990.27
2019-01-14T03:52:29.099Z,990.3
2019-01-14T03:53:28.039Z,990.28
2019-01-14T03:54:24.109Z,990.34
2019-01-14T03:55:23.645Z,990.4
2019-01-14T03:56:21.540Z,990.42
2019-01-14T03:57:22.318Z,990.37
2019-01-14T03:58:20.388Z,990.43
2019-01-14T03:59:15.979Z,990.42
2019-01-14T04:00:16.817Z,990.57
2019-01-14T04:01:14.741Z,990.48
2019-01-14T04:02:11.074Z,990.51
2019-01-14T04:03:06.861Z,990.52
2019-01-14T04:04:06.094Z,990.52
2019-01-14T04:05:02.543Z,990.49
2019-01-14T04:06:05.031Z,990.52
2019-01-14T04:07:13.625Z,990.55
2019-01-14T04:07:14.087Z,990.55
2019-01-14T04:08:06.913Z,990.6
2019-01-14T04:09:04.615Z,990.54
2019-01-14T04:10:00.287Z,990.55
2019-01-14T04:10:57.299Z,990.54
2019-01-14T04:11:53.664Z,990.54
2019-01-14T04:12:50.117Z,990.52
2019-01-14T04:13:48.559Z,990.64
2019-01-14T04:14:44.403Z,990.67
2019-01-14T04:15:43.486Z,990.61
2019-01-14T04:16:41.150Z,990.67
2019-01-14T04:17:52.710Z,990.54
2019-01-14T04:18:52.351Z,990.53
2019-01-14T04:19:52.036Z,990.6
2019-01-14T04:21:01.455Z,990.69
2019-01-14T04:21:59.721Z,990.69
2019-01-14T04:22:55.531Z,990.69
2019-01-14T04:23:51.151Z,990.63
2019-01-14T04:24:46.891Z,990.67
2019-01-14T04:25:42.990Z,990.78
2019-01-14T04:26:44.965Z,990.72
2019-01-14T04:27:43.298Z,990.76
2019-01-14T04:28:41.437Z,990.72
2019-01-14T04:29:38.768Z,990.76
2019-01-14T04:30:35.484Z,990.82
2019-01-14T04:31:31.451Z,990.76
2019-01-14T04:32:28.559Z,990.82
2019-01-14T04:33:27.140Z,990.76
2019-01-14T04:34:26.525Z,990.84
2019-01-14T04:35:22.179Z,990.82
2019-01-14T04:36:17.640Z,990.89
2019-01-14T04:37:21.307Z,990.73
2019-01-14T04:37:21.692Z,990.73
2019-01-14T04:38:11.262Z,990.75
2019-01-14T04:39:11.934Z,990.85
2019-01-14T04:40:08.597Z,990.76
2019-01-14T04:41:04.643Z,990.81
2019-01-14T04:42:00.943Z,990.82
2019-01-14T04:43:08.197Z,990.76
2019-01-14T04:44:05.127Z,990.73
2019-01-14T04:45:07.913Z,990.79
2019-01-14T04:46:07.794Z,990.82
2019-01-14T04:47:07.909Z,990.7
2019-01-14T04:48:03.868Z,990.75
2019-01-14T04:49:02.861Z,990.72
2019-01-14T04:50:08.940Z,990.76
2019-01-14T04:51:08.372Z,990.72
2019-01-14T04:52:04.427Z,990.75
2019-01-14T04:53:00.966Z,990.78
2019-01-14T04:53:59.768Z,990.81
2019-01-14T04:54:57.231Z,990.82
2019-01-14T04:55:53.436Z,990.91
2019-01-14T04:56:49.150Z,990.88
2019-01-14T04:57:56.923Z,990.79
2019-01-14T04:58:54.164Z,990.91
2019-01-14T04:59:53.062Z,990.85
2019-01-14T05:00:49.263Z,990.81
2019-01-14T05:01:45.776Z,990.91
2019-01-14T05:02:41.784Z,990.81
2019-01-14T05:03:44.674Z,990.88
2019-01-14T05:04:38.385Z,990.94
2019-01-14T05:05:39.599Z,990.98
2019-01-14T05:06:41.055Z,990.94
2019-01-14T05:07:38.604Z,990.97
2019-01-14T05:08:34.020Z,991
2019-01-14T05:09:30.048Z,991.04
2019-01-14T05:10:25.523Z,991.12
2019-01-14T05:11:22.628Z,991.04
2019-01-14T05:12:18.485Z,991.06
2019-01-14T05:13:21.876Z,991.09
2019-01-14T05:14:21.387Z,991.03
2019-01-14T05:15:25.268Z,991.12
2019-01-14T05:16:21.300Z,990.99
2019-01-14T05:17:20.050Z,991.01
2019-01-14T05:18:18.183Z,990.96
2019-01-14T05:19:23.007Z,990.97
2019-01-14T05:20:21.736Z,991.02
2019-01-14T05:21:18.008Z,990.99
2019-01-14T05:22:18.304Z,990.96
2019-01-14T05:23:14.403Z,990.93
2019-01-14T05:24:14.622Z,990.99
2019-01-14T05:25:14.105Z,990.96
2019-01-14T05:26:10.654Z,991.07
2019-01-14T05:27:11.851Z,991.09
2019-01-14T05:28:10.347Z,991.09
2019-01-14T05:29:11.687Z,991.1
2019-01-14T05:30:07.358Z,991.1
2019-01-14T05:31:09.509Z,991.02
2019-01-14T05:32:04.970Z,991.09
2019-01-14T05:33:01.309Z,991.12
2019-01-14T05:33:56.982Z,991.07
2019-01-14T05:34:55.617Z,991.13
2019-01-14T05:35:54.203Z,991.09
2019-01-14T05:36:53.783Z,991.16
2019-01-14T05:37:52.100Z,991.18
2019-01-14T05:38:47.418Z,991.21
2019-01-14T05:39:45.398Z,991.22
2019-01-14T05:40:41.494Z,991.28
2019-01-14T05:41:37.430Z,991.34
2019-01-14T05:42:33.858Z,991.38
2019-01-14T05:43:32.773Z,991.44
2019-01-14T05:44:30.424Z,991.43
2019-01-14T05:45:28.514Z,991.49
2019-01-14T05:46:23.988Z,991.49
2019-01-14T05:47:24.593Z,991.56
2019-01-14T05:48:23.477Z,991.55
2019-01-14T05:49:20.695Z,991.54
2019-01-14T05:50:19.000Z,991.57
2019-01-14T05:51:15.453Z,991.61
2019-01-14T05:52:11.161Z,991.7
2019-01-14T05:53:11.682Z,991.74
2019-01-14T05:54:11.828Z,991.71
2019-01-14T05:55:07.252Z,991.68
2019-01-14T05:56:03.811Z,991.68
2019-01-14T05:57:06.643Z,991.73
2019-01-14T05:58:02.642Z,991.76
2019-01-14T05:59:01.954Z,991.76
2019-01-14T05:59:58.166Z,991.71
2019-01-14T06:00:54.088Z,991.73
2019-01-14T06:01:50.988Z,991.79
2019-01-14T06:02:48.116Z,991.76
2019-01-14T06:03:43.637Z,991.77
2019-01-14T06:04:39.560Z,991.7
2019-01-14T06:05:38.390Z,991.83
2019-01-14T06:06:37.589Z,991.73
2019-01-14T06:07:33.752Z,991.87
2019-01-14T06:08:29.371Z,991.86
2019-01-14T06:09:25.252Z,991.93
2019-01-14T06:10:21.384Z,991.86
2019-01-14T06:11:16.846Z,991.93
2019-01-14T06:12:16.203Z,991.93
2019-01-14T06:13:17.443Z,991.96
2019-01-14T06:14:12.986Z,992.11
2019-01-14T06:15:13.530Z,991.98
2019-01-14T06:16:10.044Z,992.02
2019-01-14T06:17:05.865Z,992.02
2019-01-14T06:18:04.785Z,992.04
2019-01-14T06:19:01.446Z,992.04
2019-01-14T06:19:56.927Z,991.96
2019-01-14T06:20:52.801Z,992.1
2019-01-14T06:21:57.626Z,992.14
2019-01-14T06:23:03.208Z,992.02
2019-01-14T06:23:59.169Z,992.08
2019-01-14T06:24:56.769Z,992.13
2019-01-14T06:25:53.395Z,992.15
2019-01-14T06:26:57.118Z,992.13
2019-01-14T06:27:53.792Z,992.17
2019-01-14T06:28:56.949Z,992.23
2019-01-14T06:29:56.150Z,992.26
2019-01-14T06:30:56.303Z,992.18
2019-01-14T06:31:52.376Z,992.18
2019-01-14T06:32:50.557Z,992.18
2019-01-14T06:33:56.178Z,992.2
2019-01-14T06:34:52.965Z,992.14
2019-01-14T06:35:54.826Z,992.17
2019-01-14T06:36:51.647Z,992.2
2019-01-14T06:37:52.544Z,992.2
2019-01-14T06:38:48.172Z,992.21
2019-01-14T06:39:49.456Z,992.23
2019-01-14T06:40:45.416Z,992.23
2019-01-14T06:41:41.660Z,992.14
2019-01-14T06:42:39.377Z,992.23
2019-01-14T06:43:36.129Z,992.3
2019-01-14T06:44:32.817Z,992.27
2019-01-14T06:44:44.567Z,992.32
2019-01-14T06:45:41.404Z,992.27
2019-01-14T06:46:37.247Z,992.38
2019-01-14T06:47:37.583Z,992.35
2019-01-14T06:48:34.897Z,992.43
2019-01-14T06:49:31.429Z,992.43
2019-01-14T06:50:31.312Z,992.38
2019-01-14T06:51:32.474Z,992.45
2019-01-14T06:52:28.720Z,992.45
2019-01-14T06:53:28.100Z,992.51
2019-01-14T06:54:26.134Z,992.43
2019-01-14T06:55:23.247Z,992.44
2019-01-14T06:56:22.244Z,992.6
2019-01-14T06:57:24.404Z,992.55
2019-01-14T06:58:21.907Z,992.61
2019-01-14T06:59:22.230Z,992.64
2019-01-14T07:00:19.432Z,992.55
2019-01-14T07:01:20.385Z,992.63
2019-01-14T07:02:22.201Z,992.57
2019-01-14T07:03:22.455Z,992.66
2019-01-14T07:04:22.030Z,992.66
2019-01-14T07:05:20.786Z,992.6
2019-01-14T07:06:16.044Z,992.63
2019-01-14T07:07:20.229Z,992.74
2019-01-14T07:08:18.342Z,992.69
2019-01-14T07:09:17.156Z,992.7
2019-01-14T07:10:16.416Z,992.76
2019-01-14T07:11:12.823Z,992.71
2019-01-14T07:12:08.694Z,992.74
2019-01-14T07:13:05.190Z,992.7
2019-01-14T07:14:01.436Z,992.71
2019-01-14T07:14:58.327Z,992.85
2019-01-14T07:16:00.476Z,992.86
2019-01-14T07:16:57.633Z,992.9
2019-01-14T07:17:54.940Z,992.92
2019-01-14T07:18:56.058Z,992.86
2019-01-14T07:19:53.839Z,993.07
2019-01-14T07:20:49.743Z,993.07
2019-01-14T07:21:45.406Z,992.98
2019-01-14T07:22:45.148Z,993.04
2019-01-14T07:23:41.423Z,993.06
2019-01-14T07:24:40.190Z,993.07
2019-01-14T07:25:41.386Z,993.16
2019-01-14T07:26:37.567Z,993.13
2019-01-14T07:27:35.459Z,993.19
2019-01-14T07:28:36.584Z,993.23
2019-01-14T07:29:37.183Z,993.23
2019-01-14T07:30:41.728Z,993.26
2019-01-14T07:31:43.163Z,993.27
2019-01-14T07:32:39.180Z,993.47
2019-01-14T07:33:34.641Z,993.4
2019-01-14T07:34:31.070Z,993.43
2019-01-14T07:35:28.656Z,993.47
2019-01-14T07:36:30.527Z,993.49
2019-01-14T07:37:29.197Z,993.55
2019-01-14T07:38:25.272Z,993.58
2019-01-14T07:39:22.167Z,993.66
2019-01-14T07:40:18.475Z,993.68
2019-01-14T07:41:16.546Z,993.63
2019-01-14T07:42:15.810Z,993.68
2019-01-14T07:43:13.448Z,993.71
2019-01-14T07:44:09.627Z,993.87
2019-01-14T07:45:08.775Z,993.69
2019-01-14T07:46:05.672Z,993.69
2019-01-14T07:47:03.715Z,993.84
2019-01-14T07:48:00.681Z,993.83
2019-01-14T07:48:56.441Z,993.93
2019-01-14T07:49:57.420Z,993.83
2019-01-14T07:50:55.656Z,994.03
2019-01-14T07:51:55.699Z,993.97
2019-01-14T07:52:57.484Z,994
2019-01-14T07:53:54.175Z,993.95
2019-01-14T07:54:54.664Z,994.05
2019-01-14T07:55:56.785Z,994.01
2019-01-14T07:56:58.448Z,994.02
2019-01-14T07:58:01.539Z,994.04
2019-01-14T07:58:58.698Z,994.05
2019-01-14T07:59:53.914Z,993.99
2019-01-14T08:00:50.271Z,994.08
2019-01-14T08:01:45.459Z,994.07
2019-01-14T08:02:50.540Z,994.13
2019-01-14T08:03:45.887Z,994.13
2019-01-14T08:04:41.910Z,994.19
2019-01-14T08:05:37.168Z,994.2
2019-01-14T08:06:33.001Z,994.19
2019-01-14T08:07:29.095Z,994.2
2019-01-14T08:08:24.603Z,994.25
2019-01-14T08:09:21.539Z,994.3
2019-01-14T08:10:18.744Z,994.23
2019-01-14T08:11:15.498Z,994.16
2019-01-14T08:12:10.901Z,994.19
2019-01-14T08:13:12.025Z,994.17
2019-01-14T08:14:14.770Z,994.08
2019-01-14T08:15:11.318Z,994.08
2019-01-14T08:16:07.096Z,994.07
2019-01-14T08:17:03.238Z,994.01
2019-01-14T08:18:04.716Z,994.11
2019-01-14T08:19:01.918Z,994.13
2019-01-14T08:20:06.474Z,994
2019-01-14T08:21:10.485Z,994.13
2019-01-14T08:22:06.597Z,994.12
2019-01-14T08:23:07.133Z,994.17
2019-01-14T08:24:09.784Z,994.23
2019-01-14T08:25:04.824Z,994.31
2019-01-14T08:26:06.740Z,994.22
2019-01-14T08:27:03.483Z,994.34
2019-01-14T08:28:00.870Z,994.28
2019-01-14T08:29:01.415Z,994.38
2019-01-14T08:29:56.697Z,994.32
2019-01-14T08:30:52.393Z,994.35
2019-01-14T08:31:47.424Z,994.31
2019-01-14T08:32:42.990Z,994.44
2019-01-14T08:33:39.483Z,994.41
2019-01-14T08:34:39.178Z,994.36
2019-01-14T08:35:35.018Z,994.41
2019-01-14T08:36:31.872Z,994.39
2019-01-14T08:37:29.262Z,994.42
2019-01-14T08:38:24.619Z,994.48
2019-01-14T08:39:21.824Z,994.53
2019-01-14T08:40:30.919Z,994.53
2019-01-14T08:41:26.140Z,994.5
2019-01-14T08:42:23.091Z,994.51
2019-01-14T08:43:21.389Z,994.66
2019-01-14T08:44:16.611Z,994.63
2019-01-14T08:45:13.774Z,994.61
2019-01-14T08:46:09.773Z,994.64
2019-01-14T08:47:06.109Z,994.66
2019-01-14T08:48:04.674Z,994.6
2019-01-14T08:49:01.505Z,994.63
2019-01-14T08:49:57.411Z,994.72
2019-01-14T08:50:57.228Z,994.74
2019-01-14T08:51:55.271Z,994.71
2019-01-14T08:52:56.209Z,994.74
2019-01-14T08:53:58.203Z,994.75
2019-01-14T08:54:54.023Z,994.69
2019-01-14T08:55:54.541Z,994.87
2019-01-14T08:56:51.161Z,994.84
2019-01-14T08:57:54.397Z,994.82
2019-01-14T08:58:46.724Z,994.87
2019-01-14T08:59:42.828Z,994.8
2019-01-14T09:00:42.621Z,994.87
2019-01-14T09:01:46.099Z,994.88
2019-01-14T09:02:42.697Z,994.88
2019-01-14T09:03:38.752Z,994.93
2019-01-14T09:04:34.535Z,994.91
2019-01-14T09:05:29.751Z,994.9
2019-01-14T09:06:25.207Z,995.04
2019-01-14T09:07:29.036Z,994.96
2019-01-14T09:08:28.966Z,994.97
2019-01-14T09:09:26.732Z,994.97
2019-01-14T09:10:23.795Z,995
2019-01-14T09:11:25.115Z,994.88
2019-01-14T09:12:20.699Z,994.96
2019-01-14T09:13:21.947Z,995
2019-01-14T09:14:18.152Z,995.05
2019-01-14T09:15:20.325Z,994.97
2019-01-14T09:16:15.837Z,995.07
2019-01-14T09:17:17.280Z,995.12
2019-01-14T09:18:12.772Z,995.1
2019-01-14T09:19:12.165Z,995.16
2019-01-14T09:20:07.176Z,995.31
2019-01-14T09:21:03.145Z,995.18
2019-01-14T09:22:09.797Z,995.21
2019-01-14T09:23:04.901Z,995.21
2019-01-14T09:24:01.499Z,995.19
2019-01-14T09:24:58.226Z,995.19
2019-01-14T09:25:58.124Z,995.31
2019-01-14T09:26:57.186Z,995.29
2019-01-14T09:27:52.536Z,995.28
2019-01-14T09:28:49.840Z,995.31
2019-01-14T09:29:45.259Z,995.27
2019-01-14T09:30:43.221Z,995.28
2019-01-14T09:31:39.263Z,995.25
2019-01-14T09:32:34.384Z,995.18
2019-01-14T09:33:29.834Z,995.19
2019-01-14T09:34:28.075Z,995.32
2019-01-14T09:35:31.700Z,995.19
2019-01-14T09:36:26.878Z,995.28
2019-01-14T09:37:23.284Z,995.19
2019-01-14T09:38:20.615Z,995.31
2019-01-14T09:39:16.845Z,995.31
2019-01-14T09:40:18.939Z,995.32
2019-01-14T09:41:21.112Z,995.26
2019-01-14T09:42:19.524Z,995.29
2019-01-14T09:43:16.184Z,995.37
2019-01-14T09:44:12.045Z,995.36
2019-01-14T09:45:08.903Z,995.29
2019-01-14T09:46:09.442Z,995.35
2019-01-14T09:47:06.343Z,995.35
2019-01-14T09:48:01.628Z,995.38
2019-01-14T09:48:58.277Z,995.41
2019-01-14T09:49:53.911Z,995.42
2019-01-14T09:50:49.324Z,995.39
2019-01-14T09:51:47.793Z,995.33
2019-01-14T09:52:44.820Z,995.46
2019-01-14T09:53:40.763Z,995.4
2019-01-14T09:54:39.515Z,995.49
2019-01-14T09:55:35.661Z,995.45
2019-01-14T09:56:31.488Z,995.52
2019-01-14T09:57:27.095Z,995.53
2019-01-14T09:58:27.311Z,995.5
2019-01-14T09:59:23.080Z,995.46
2019-01-14T10:00:20.097Z,995.61
2019-01-14T10:01:16.403Z,995.64
2019-01-14T10:02:13.219Z,995.67
2019-01-14T10:03:09.792Z,995.61
2019-01-14T10:04:05.683Z,995.57
2019-01-14T10:05:03.358Z,995.64
2019-01-14T10:06:04.298Z,995.71
2019-01-14T10:07:02.803Z,995.71
2019-01-14T10:08:00.058Z,995.72
2019-01-14T10:08:56.310Z,995.68
2019-01-14T10:09:52.893Z,995.66
2019-01-14T10:10:49.255Z,995.77
2019-01-14T10:11:46.577Z,995.71
2019-01-14T10:12:42.907Z,995.77
2019-01-14T10:13:38.658Z,995.8
2019-01-14T10:14:34.522Z,995.78
2019-01-14T10:15:31.399Z,995.77
2019-01-14T10:16:27.351Z,995.78
2019-01-14T10:17:24.773Z,995.87
2019-01-14T10:18:22.363Z,995.81
2019-01-14T10:19:25.833Z,995.78
2019-01-14T10:20:32.846Z,995.82
2019-01-14T10:21:28.696Z,995.78
2019-01-14T10:22:24.893Z,995.87
2019-01-14T10:23:20.720Z,995.91
2019-01-14T10:24:21.445Z,995.85
2019-01-14T10:25:17.247Z,995.92
2019-01-14T10:26:16.580Z,995.88
2019-01-14T10:27:12.385Z,995.94
2019-01-14T10:28:16.123Z,996
2019-01-14T10:29:13.074Z,996.06
2019-01-14T10:30:12.624Z,996.06
2019-01-14T10:31:08.891Z,996.05
2019-01-14T10:32:05.348Z,996.01
2019-01-14T10:33:04.558Z,996.02
2019-01-14T10:34:00.582Z,996.13
2019-01-14T10:35:00.300Z,996.1
2019-01-14T10:35:58.992Z,996.07
2019-01-14T10:36:55.307Z,996.19
2019-01-14T10:37:52.516Z,996.14
2019-01-14T10:38:50.555Z,996.2
2019-01-14T10:39:47.154Z,996.17
2019-01-14T10:40:43.222Z,996.2
2019-01-14T10:41:47.780Z,996.23
2019-01-14T10:42:46.814Z,996.17
2019-01-14T10:43:45.793Z,996.21
2019-01-14T10:44:48.783Z,996.23
2019-01-14T10:45:48.204Z,996.18
2019-01-14T10:46:45.198Z,996.2
2019-01-14T10:47:42.366Z,996.2
2019-01-14T10:48:40.303Z,996.21
2019-01-14T10:49:49.032Z,996.14
2019-01-14T10:50:45.536Z,996.15
2019-01-14T10:51:43.339Z,996.21
2019-01-14T10:52:42.449Z,996.17
2019-01-14T10:53:38.783Z,996.21
2019-01-14T10:54:38.555Z,996.27
2019-01-14T10:55:35.446Z,996.31
2019-01-14T10:56:32.500Z,996.23
2019-01-14T10:57:30.649Z,996.17
2019-01-14T10:58:27.931Z,996.25
2019-01-14T10:59:27.709Z,996.12
2019-01-14T11:00:23.902Z,996.25
2019-01-14T11:01:24.648Z,996.34
2019-01-14T11:02:20.964Z,996.3
2019-01-14T11:03:22.597Z,996.31
2019-01-14T11:04:22.899Z,996.3
2019-01-14T11:05:23.519Z,996.24
2019-01-14T11:06:22.087Z,996.37
2019-01-14T11:07:19.784Z,996.28
2019-01-14T11:08:20.293Z,996.3
2019-01-14T11:09:18.071Z,996.34
2019-01-14T11:10:16.880Z,996.28
2019-01-14T11:11:16.924Z,996.43
2019-01-14T11:12:16.545Z,996.31
2019-01-14T11:13:15.354Z,996.3
2019-01-14T11:14:16.751Z,996.35
2019-01-14T11:15:17.645Z,996.31
2019-01-14T11:16:14.122Z,996.35
2019-01-14T11:17:11.061Z,996.43
2019-01-14T11:18:07.874Z,996.4
2019-01-14T11:19:05.772Z,996.31
2019-01-14T11:20:05.204Z,996.32
2019-01-14T11:21:02.333Z,996.37
2019-01-14T11:21:59.438Z,996.38
2019-01-14T11:22:58.614Z,996.4
2019-01-14T11:23:55.433Z,996.35
2019-01-14T11:24:55.529Z,996.51
2019-01-14T11:25:53.028Z,996.51
2019-01-14T11:26:49.542Z,996.54
2019-01-14T11:27:47.674Z,996.47
2019-01-14T11:28:45.456Z,996.53
2019-01-14T11:29:42.749Z,996.52
2019-01-14T11:30:45.373Z,996.52
2019-01-14T11:31:49.378Z,996.59
2019-01-14T11:32:50.635Z,996.52
2019-01-14T11:33:48.852Z,996.52
2019-01-14T11:34:45.310Z,996.55
2019-01-14T11:35:49.196Z,996.53
2019-01-14T11:36:47.379Z,996.56
2019-01-14T11:37:47.530Z,996.64
2019-01-14T11:38:45.339Z,996.61
2019-01-14T11:39:42.327Z,996.62
2019-01-14T11:40:40.583Z,996.56
2019-01-14T11:41:44.928Z,996.68
2019-01-14T11:42:43.227Z,996.53
2019-01-14T11:43:43.928Z,996.53
2019-01-14T11:44:41.300Z,996.55
2019-01-14T11:45:39.560Z,996.67
2019-01-14T11:46:38.163Z,996.62
2019-01-14T11:47:36.430Z,996.7
2019-01-14T11:48:36.507Z,996.67
2019-01-14T11:49:33.206Z,996.68
2019-01-14T11:50:29.948Z,996.74
2019-01-14T11:51:28.534Z,996.7
2019-01-14T11:52:25.409Z,996.61
2019-01-14T11:53:27.648Z,996.73
2019-01-14T11:54:31.587Z,996.68
2019-01-14T11:55:29.537Z,996.7
2019-01-14T11:56:30.465Z,996.64
2019-01-14T11:58:04.519Z,996.64
2019-01-14T11:58:59.295Z,996.61
2019-01-14T12:00:28.172Z,996.67
2019-01-14T12:01:25.079Z,996.65
2019-01-14T12:02:23.293Z,996.67
2019-01-14T12:03:20.196Z,996.71
2019-01-14T12:04:18.617Z,996.68
2019-01-14T12:05:19.390Z,996.68
2019-01-14T12:06:18.573Z,996.65
2019-01-14T12:07:15.412Z,996.7
2019-01-14T12:08:16.658Z,996.64
2019-01-14T12:09:14.010Z,996.7
2019-01-14T12:10:10.824Z,996.8